sensor_id;sensor_type;location;lat;lon;timestamp;P1;durP1;ratioP1;P2;durP2;ratioP2
70233;SDS011;75981;42.636;23.376;2024-03-23T00:53:46;9.63;;;4.60;;
70233;SDS011;75981;42.636;23.376;2024-03-23T00:56:12;10.27;;;5.18;;
70233;SDS011;75981;42.636;23.376;2024-03-23T00:58:37;11.05;;;4.70;;
70233;SDS011;75981;42.636;23.376;2024-03-23T01:01:03;10.15;;;4.90;;
70233;SDS011;75981;42.636;23.376;2024-03-23T01:03:29;9.60;;;4.85;;
70233;SDS011;75981;42.636;23.376;2024-03-23T01:05:58;10.13;;;4.88;;
70233;SDS011;75981;42.636;23.376;2024-03-23T01:10:56;10.68;;;4.68;;
70233;SDS011;75981;42.636;23.376;2024-03-23T01:13:22;11.02;;;4.85;;
70233;SDS011;75981;42.636;23.376;2024-03-23T01:15:49;11.73;;;4.60;;
70233;SDS011;75981;42.636;23.376;2024-03-23T01:18:16;9.27;;;4.45;;
70233;SDS011;75981;42.636;23.376;2024-03-23T01:20:42;10.85;;;4.50;;
70233;SDS011;75981;42.636;23.376;2024-03-23T01:23:08;9.15;;;4.30;;
70233;SDS011;75981;42.636;23.376;2024-03-23T01:25:33;10.48;;;4.57;;
70233;SDS011;75981;42.636;23.376;2024-03-23T01:27:59;10.30;;;4.35;;
70233;SDS011;75981;42.636;23.376;2024-03-23T01:30:24;9.50;;;4.13;;
70233;SDS011;75981;42.636;23.376;2024-03-23T01:32:49;9.70;;;4.30;;
70233;SDS011;75981;42.636;23.376;2024-03-23T01:35:15;10.85;;;4.53;;
70233;SDS011;75981;42.636;23.376;2024-03-23T01:37:40;9.18;;;4.10;;
70233;SDS011;75981;42.636;23.376;2024-03-23T01:40:06;10.05;;;4.30;;
70233;SDS011;75981;42.636;23.376;2024-03-23T01:42:32;9.43;;;4.63;;
70233;SDS011;75981;42.636;23.376;2024-03-23T01:44:57;8.98;;;4.45;;
70233;SDS011;75981;42.636;23.376;2024-03-23T01:47:22;10.00;;;4.18;;
70233;SDS011;75981;42.636;23.376;2024-03-23T01:49:48;10.52;;;5.20;;
70233;SDS011;75981;42.636;23.376;2024-03-23T01:52:13;9.32;;;4.30;;
70233;SDS011;75981;42.636;23.376;2024-03-23T01:54:39;9.00;;;4.55;;
70233;SDS011;75981;42.636;23.376;2024-03-23T01:57:06;10.32;;;4.63;;
70233;SDS011;75981;42.636;23.376;2024-03-23T01:59:31;9.35;;;4.28;;
70233;SDS011;75981;42.636;23.376;2024-03-23T02:01:57;9.50;;;4.70;;
70233;SDS011;75981;42.636;23.376;2024-03-23T02:04:22;12.65;;;5.05;;
70233;SDS011;75981;42.636;23.376;2024-03-23T02:06:48;10.43;;;4.50;;
70233;SDS011;75981;42.636;23.376;2024-03-23T02:09:13;10.30;;;4.50;;
70233;SDS011;75981;42.636;23.376;2024-03-23T02:11:40;10.13;;;4.70;;
70233;SDS011;75981;42.636;23.376;2024-03-23T02:14:05;9.18;;;4.28;;
70233;SDS011;75981;42.636;23.376;2024-03-23T02:16:32;11.10;;;4.60;;
70233;SDS011;75981;42.636;23.376;2024-03-23T02:18:58;8.93;;;4.30;;
70233;SDS011;75981;42.636;23.376;2024-03-23T02:21:23;10.32;;;4.80;;
70233;SDS011;75981;42.636;23.376;2024-03-23T02:23:49;10.07;;;4.93;;
70233;SDS011;75981;42.636;23.376;2024-03-23T02:26:14;11.52;;;5.03;;
70233;SDS011;75981;42.636;23.376;2024-03-23T02:28:40;11.48;;;5.53;;
70233;SDS011;75981;42.636;23.376;2024-03-23T02:31:06;9.55;;;4.70;;
70233;SDS011;75981;42.636;23.376;2024-03-23T02:33:31;9.65;;;4.88;;
70233;SDS011;75981;42.636;23.376;2024-03-23T02:35:57;9.32;;;4.75;;
70233;SDS011;75981;42.636;23.376;2024-03-23T02:38:23;12.40;;;5.50;;
70233;SDS011;75981;42.636;23.376;2024-03-23T02:40:49;11.85;;;5.20;;
70233;SDS011;75981;42.636;23.376;2024-03-23T02:43:14;12.00;;;4.38;;
70233;SDS011;75981;42.636;23.376;2024-03-23T02:45:40;10.45;;;4.57;;
70233;SDS011;75981;42.636;23.376;2024-03-23T02:48:05;8.35;;;4.55;;
70233;SDS011;75981;42.636;23.376;2024-03-23T02:50:31;13.82;;;4.57;;
70233;SDS011;75981;42.636;23.376;2024-03-23T02:52:56;12.38;;;4.88;;
70233;SDS011;75981;42.636;23.376;2024-03-23T02:55:22;10.68;;;4.53;;
70233;SDS011;75981;42.636;23.376;2024-03-23T02:57:47;9.48;;;4.50;;
70233;SDS011;75981;42.636;23.376;2024-03-23T03:00:13;11.70;;;5.10;;
70233;SDS011;75981;42.636;23.376;2024-03-23T03:02:38;10.02;;;4.53;;
70233;SDS011;75981;42.636;23.376;2024-03-23T03:05:04;17.50;;;5.00;;
70233;SDS011;75981;42.636;23.376;2024-03-23T03:07:31;10.23;;;4.70;;
70233;SDS011;75981;42.636;23.376;2024-03-23T03:09:57;10.20;;;4.20;;
70233;SDS011;75981;42.636;23.376;2024-03-23T03:12:22;9.73;;;4.72;;
70233;SDS011;75981;42.636;23.376;2024-03-23T03:14:48;9.00;;;4.13;;
70233;SDS011;75981;42.636;23.376;2024-03-23T03:17:13;12.25;;;4.22;;
70233;SDS011;75981;42.636;23.376;2024-03-23T03:19:40;10.90;;;4.55;;
70233;SDS011;75981;42.636;23.376;2024-03-23T03:22:05;9.80;;;4.25;;
70233;SDS011;75981;42.636;23.376;2024-03-23T03:24:31;10.85;;;3.90;;
70233;SDS011;75981;42.636;23.376;2024-03-23T03:26:56;9.55;;;3.90;;
70233;SDS011;75981;42.636;23.376;2024-03-23T03:29:23;8.20;;;3.80;;
70233;SDS011;75981;42.636;23.376;2024-03-23T03:31:48;8.80;;;4.05;;
70233;SDS011;75981;42.636;23.376;2024-03-23T03:34:15;9.52;;;4.03;;
70233;SDS011;75981;42.636;23.376;2024-03-23T03:36:40;9.48;;;4.00;;
70233;SDS011;75981;42.636;23.376;2024-03-23T03:39:06;11.13;;;4.57;;
70233;SDS011;75981;42.636;23.376;2024-03-23T03:41:32;10.43;;;4.30;;
70233;SDS011;75981;42.636;23.376;2024-03-23T03:43:57;10.60;;;4.43;;
70233;SDS011;75981;42.636;23.376;2024-03-23T03:46:26;11.25;;;4.72;;
70233;SDS011;75981;42.636;23.376;2024-03-23T03:48:52;10.02;;;4.30;;
70233;SDS011;75981;42.636;23.376;2024-03-23T03:51:19;10.60;;;4.60;;
70233;SDS011;75981;42.636;23.376;2024-03-23T03:53:45;8.82;;;4.10;;
70233;SDS011;75981;42.636;23.376;2024-03-23T03:56:10;9.23;;;4.05;;
70233;SDS011;75981;42.636;23.376;2024-03-23T03:58:35;8.43;;;3.67;;
70233;SDS011;75981;42.636;23.376;2024-03-23T04:01:01;10.32;;;3.97;;
70233;SDS011;75981;42.636;23.376;2024-03-23T04:03:26;9.00;;;4.10;;
70233;SDS011;75981;42.636;23.376;2024-03-23T04:05:52;8.77;;;4.38;;
70233;SDS011;75981;42.636;23.376;2024-03-23T04:08:19;11.07;;;4.63;;
70233;SDS011;75981;42.636;23.376;2024-03-23T04:10:45;11.13;;;4.18;;
70233;SDS011;75981;42.636;23.376;2024-03-23T04:13:10;8.65;;;4.38;;
70233;SDS011;75981;42.636;23.376;2024-03-23T04:15:37;9.10;;;4.28;;
70233;SDS011;75981;42.636;23.376;2024-03-23T04:18:02;9.80;;;4.30;;
70233;SDS011;75981;42.636;23.376;2024-03-23T04:20:28;11.27;;;5.55;;
70233;SDS011;75981;42.636;23.376;2024-03-23T04:22:53;11.35;;;4.93;;
70233;SDS011;75981;42.636;23.376;2024-03-23T04:25:19;8.73;;;4.10;;
70233;SDS011;75981;42.636;23.376;2024-03-23T04:27:44;11.57;;;4.85;;
70233;SDS011;75981;42.636;23.376;2024-03-23T04:30:11;9.13;;;4.20;;
70233;SDS011;75981;42.636;23.376;2024-03-23T04:32:37;10.38;;;4.22;;
70233;SDS011;75981;42.636;23.376;2024-03-23T04:35:03;9.57;;;4.30;;
70233;SDS011;75981;42.636;23.376;2024-03-23T04:37:34;12.40;;;4.32;;
70233;SDS011;75981;42.636;23.376;2024-03-23T04:40:03;12.68;;;4.70;;
70233;SDS011;75981;42.636;23.376;2024-03-23T04:42:29;9.38;;;4.70;;
70233;SDS011;75981;42.636;23.376;2024-03-23T04:44:56;12.65;;;4.53;;
70233;SDS011;75981;42.636;23.376;2024-03-23T04:47:21;15.50;;;5.00;;
70233;SDS011;75981;42.636;23.376;2024-03-23T04:49:47;9.90;;;4.82;;
70233;SDS011;75981;42.636;23.376;2024-03-23T04:52:13;13.90;;;4.65;;
70233;SDS011;75981;42.636;23.376;2024-03-23T04:54:38;11.70;;;4.50;;
70233;SDS011;75981;42.636;23.376;2024-03-23T04:57:07;10.43;;;4.95;;
70233;SDS011;75981;42.636;23.376;2024-03-23T04:59:33;13.52;;;4.78;;
70233;SDS011;75981;42.636;23.376;2024-03-23T05:01:58;12.05;;;5.20;;
70233;SDS011;75981;42.636;23.376;2024-03-23T05:04:24;12.18;;;5.22;;
70233;SDS011;75981;42.636;23.376;2024-03-23T05:06:50;10.20;;;4.45;;
70233;SDS011;75981;42.636;23.376;2024-03-23T05:09:15;12.50;;;5.60;;
70233;SDS011;75981;42.636;23.376;2024-03-23T05:11:41;11.52;;;5.38;;
70233;SDS011;75981;42.636;23.376;2024-03-23T05:14:07;12.68;;;5.40;;
70233;SDS011;75981;42.636;23.376;2024-03-23T05:16:33;12.32;;;5.43;;
70233;SDS011;75981;42.636;23.376;2024-03-23T05:18:58;13.27;;;5.55;;
70233;SDS011;75981;42.636;23.376;2024-03-23T05:21:24;10.85;;;5.57;;
70233;SDS011;75981;42.636;23.376;2024-03-23T05:23:49;11.90;;;5.60;;
70233;SDS011;75981;42.636;23.376;2024-03-23T05:26:16;11.50;;;5.50;;
70233;SDS011;75981;42.636;23.376;2024-03-23T05:28:42;12.52;;;6.30;;
70233;SDS011;75981;42.636;23.376;2024-03-23T05:31:07;11.93;;;6.05;;
70233;SDS011;75981;42.636;23.376;2024-03-23T05:33:34;13.80;;;7.45;;
70233;SDS011;75981;42.636;23.376;2024-03-23T05:36:02;14.95;;;7.07;;
70233;SDS011;75981;42.636;23.376;2024-03-23T05:38:29;13.82;;;6.30;;
70233;SDS011;75981;42.636;23.376;2024-03-23T05:40:54;13.27;;;6.30;;
70233;SDS011;75981;42.636;23.376;2024-03-23T05:43:21;13.60;;;7.22;;
70233;SDS011;75981;42.636;23.376;2024-03-23T05:45:56;13.70;;;6.30;;
70233;SDS011;75981;42.636;23.376;2024-03-23T05:48:22;12.10;;;5.95;;
70233;SDS011;75981;42.636;23.376;2024-03-23T05:50:48;11.93;;;5.50;;
70233;SDS011;75981;42.636;23.376;2024-03-23T05:53:18;12.77;;;6.00;;
70233;SDS011;75981;42.636;23.376;2024-03-23T05:55:47;13.77;;;5.45;;
70233;SDS011;75981;42.636;23.376;2024-03-23T05:58:14;13.30;;;5.68;;
70233;SDS011;75981;42.636;23.376;2024-03-23T06:00:40;13.60;;;5.60;;
70233;SDS011;75981;42.636;23.376;2024-03-23T06:03:06;13.70;;;6.15;;
70233;SDS011;75981;42.636;23.376;2024-03-23T06:05:32;12.85;;;6.43;;
70233;SDS011;75981;42.636;23.376;2024-03-23T06:07:57;14.55;;;5.95;;
70233;SDS011;75981;42.636;23.376;2024-03-23T06:10:23;14.25;;;6.10;;
70233;SDS011;75981;42.636;23.376;2024-03-23T06:12:48;12.02;;;5.82;;
70233;SDS011;75981;42.636;23.376;2024-03-23T06:15:16;11.65;;;6.25;;
70233;SDS011;75981;42.636;23.376;2024-03-23T06:17:41;17.38;;;6.55;;
70233;SDS011;75981;42.636;23.376;2024-03-23T06:20:06;14.68;;;6.10;;
70233;SDS011;75981;42.636;23.376;2024-03-23T06:22:32;12.95;;;5.47;;
70233;SDS011;75981;42.636;23.376;2024-03-23T06:24:58;12.40;;;5.60;;
70233;SDS011;75981;42.636;23.376;2024-03-23T06:27:24;11.68;;;5.22;;
70233;SDS011;75981;42.636;23.376;2024-03-23T06:29:49;11.25;;;5.80;;
70233;SDS011;75981;42.636;23.376;2024-03-23T06:32:15;11.13;;;5.85;;
70233;SDS011;75981;42.636;23.376;2024-03-23T06:34:43;15.85;;;5.97;;
70233;SDS011;75981;42.636;23.376;2024-03-23T06:37:09;15.68;;;6.57;;
70233;SDS011;75981;42.636;23.376;2024-03-23T06:39:38;13.30;;;6.50;;
70233;SDS011;75981;42.636;23.376;2024-03-23T06:42:04;11.93;;;6.07;;
70233;SDS011;75981;42.636;23.376;2024-03-23T06:44:30;16.58;;;6.60;;
70233;SDS011;75981;42.636;23.376;2024-03-23T06:46:56;15.18;;;6.88;;
70233;SDS011;75981;42.636;23.376;2024-03-23T06:49:25;14.00;;;7.28;;
70233;SDS011;75981;42.636;23.376;2024-03-23T06:51:50;15.57;;;7.87;;
70233;SDS011;75981;42.636;23.376;2024-03-23T06:54:19;15.48;;;7.22;;
70233;SDS011;75981;42.636;23.376;2024-03-23T06:56:45;15.05;;;7.60;;
70233;SDS011;75981;42.636;23.376;2024-03-23T06:59:10;14.23;;;7.13;;
70233;SDS011;75981;42.636;23.376;2024-03-23T07:01:36;16.70;;;7.75;;
70233;SDS011;75981;42.636;23.376;2024-03-23T07:04:02;16.45;;;8.35;;
70233;SDS011;75981;42.636;23.376;2024-03-23T07:06:28;14.77;;;8.20;;
70233;SDS011;75981;42.636;23.376;2024-03-23T07:08:54;14.57;;;6.55;;
70233;SDS011;75981;42.636;23.376;2024-03-23T07:11:23;16.55;;;7.97;;
70233;SDS011;75981;42.636;23.376;2024-03-23T07:13:52;15.80;;;7.30;;
70233;SDS011;75981;42.636;23.376;2024-03-23T07:16:21;15.50;;;6.55;;
70233;SDS011;75981;42.636;23.376;2024-03-23T07:18:47;14.65;;;7.07;;
70233;SDS011;75981;42.636;23.376;2024-03-23T07:21:12;16.38;;;7.78;;
70233;SDS011;75981;42.636;23.376;2024-03-23T07:23:38;15.88;;;8.40;;
70233;SDS011;75981;42.636;23.376;2024-03-23T07:26:07;13.35;;;7.30;;
70233;SDS011;75981;42.636;23.376;2024-03-23T07:28:33;13.35;;;7.15;;
70233;SDS011;75981;42.636;23.376;2024-03-23T07:31:09;13.30;;;7.13;;
70233;SDS011;75981;42.636;23.376;2024-03-23T07:33:41;14.10;;;8.60;;
70233;SDS011;75981;42.636;23.376;2024-03-23T07:36:08;14.45;;;7.25;;
70233;SDS011;75981;42.636;23.376;2024-03-23T07:38:33;13.82;;;6.80;;
70233;SDS011;75981;42.636;23.376;2024-03-23T07:41:02;14.13;;;7.00;;
70233;SDS011;75981;42.636;23.376;2024-03-23T07:43:31;13.80;;;7.05;;
70233;SDS011;75981;42.636;23.376;2024-03-23T07:45:58;15.88;;;7.50;;
70233;SDS011;75981;42.636;23.376;2024-03-23T07:48:23;15.68;;;7.57;;
70233;SDS011;75981;42.636;23.376;2024-03-23T07:50:58;15.43;;;9.60;;
70233;SDS011;75981;42.636;23.376;2024-03-23T07:53:24;14.68;;;7.55;;
70233;SDS011;75981;42.636;23.376;2024-03-23T07:56:08;16.45;;;8.10;;
70233;SDS011;75981;42.636;23.376;2024-03-23T07:58:37;15.95;;;7.38;;
70233;SDS011;75981;42.636;23.376;2024-03-23T08:01:04;18.00;;;9.43;;
70233;SDS011;75981;42.636;23.376;2024-03-23T08:03:33;18.05;;;8.43;;
70233;SDS011;75981;42.636;23.376;2024-03-23T08:06:06;15.88;;;7.82;;
70233;SDS011;75981;42.636;23.376;2024-03-23T08:08:32;15.27;;;8.38;;
70233;SDS011;75981;42.636;23.376;2024-03-23T08:10:57;15.50;;;9.00;;
70233;SDS011;75981;42.636;23.376;2024-03-23T08:13:23;19.58;;;9.18;;
70233;SDS011;75981;42.636;23.376;2024-03-23T08:15:48;20.50;;;9.25;;
70233;SDS011;75981;42.636;23.376;2024-03-23T08:18:14;17.90;;;9.60;;
70233;SDS011;75981;42.636;23.376;2024-03-23T08:20:40;18.58;;;8.75;;
70233;SDS011;75981;42.636;23.376;2024-03-23T08:23:06;20.58;;;10.07;;
70233;SDS011;75981;42.636;23.376;2024-03-23T08:25:32;15.95;;;10.30;;
70233;SDS011;75981;42.636;23.376;2024-03-23T08:27:58;14.98;;;8.07;;
70233;SDS011;75981;42.636;23.376;2024-03-23T08:30:24;18.17;;;9.00;;
70233;SDS011;75981;42.636;23.376;2024-03-23T08:32:49;16.48;;;8.82;;
70233;SDS011;75981;42.636;23.376;2024-03-23T08:35:15;30.75;;;8.63;;
70233;SDS011;75981;42.636;23.376;2024-03-23T08:37:40;19.38;;;8.63;;
70233;SDS011;75981;42.636;23.376;2024-03-23T08:40:06;20.80;;;9.90;;
70233;SDS011;75981;42.636;23.376;2024-03-23T08:42:33;17.95;;;8.73;;
70233;SDS011;75981;42.636;23.376;2024-03-23T08:44:59;17.45;;;9.63;;
70233;SDS011;75981;42.636;23.376;2024-03-23T08:47:24;22.77;;;8.45;;
70233;SDS011;75981;42.636;23.376;2024-03-23T08:49:50;14.93;;;8.35;;
70233;SDS011;75981;42.636;23.376;2024-03-23T08:52:15;16.20;;;8.57;;
70233;SDS011;75981;42.636;23.376;2024-03-23T08:54:41;17.88;;;8.75;;
70233;SDS011;75981;42.636;23.376;2024-03-23T08:57:07;16.05;;;8.55;;
70233;SDS011;75981;42.636;23.376;2024-03-23T08:59:33;18.67;;;8.95;;
70233;SDS011;75981;42.636;23.376;2024-03-23T09:01:58;15.60;;;8.93;;
70233;SDS011;75981;42.636;23.376;2024-03-23T09:04:24;19.10;;;9.57;;
70233;SDS011;75981;42.636;23.376;2024-03-23T09:06:49;16.38;;;9.32;;
70233;SDS011;75981;42.636;23.376;2024-03-23T09:09:15;25.00;;;10.75;;
70233;SDS011;75981;42.636;23.376;2024-03-23T09:11:40;18.95;;;10.68;;
70233;SDS011;75981;42.636;23.376;2024-03-23T09:14:06;19.88;;;8.38;;
70233;SDS011;75981;42.636;23.376;2024-03-23T09:16:31;21.67;;;8.30;;
70233;SDS011;75981;42.636;23.376;2024-03-23T09:18:56;16.92;;;9.25;;
70233;SDS011;75981;42.636;23.376;2024-03-23T09:21:22;19.63;;;7.43;;
70233;SDS011;75981;42.636;23.376;2024-03-23T09:23:47;17.08;;;8.23;;
70233;SDS011;75981;42.636;23.376;2024-03-23T09:26:14;14.80;;;8.32;;
70233;SDS011;75981;42.636;23.376;2024-03-23T09:28:39;16.92;;;7.43;;
70233;SDS011;75981;42.636;23.376;2024-03-23T09:31:05;16.60;;;7.45;;
70233;SDS011;75981;42.636;23.376;2024-03-23T09:33:32;15.80;;;7.22;;
70233;SDS011;75981;42.636;23.376;2024-03-23T09:35:57;13.40;;;7.00;;
70233;SDS011;75981;42.636;23.376;2024-03-23T09:38:23;15.70;;;7.28;;
70233;SDS011;75981;42.636;23.376;2024-03-23T09:40:52;17.27;;;9.63;;
70233;SDS011;75981;42.636;23.376;2024-03-23T09:43:18;17.77;;;7.53;;
70233;SDS011;75981;42.636;23.376;2024-03-23T09:45:44;15.50;;;7.75;;
70233;SDS011;75981;42.636;23.376;2024-03-23T09:48:11;17.00;;;7.50;;
70233;SDS011;75981;42.636;23.376;2024-03-23T09:50:40;16.23;;;7.55;;
70233;SDS011;75981;42.636;23.376;2024-03-23T09:53:07;13.30;;;7.50;;
70233;SDS011;75981;42.636;23.376;2024-03-23T09:55:34;14.50;;;7.05;;
70233;SDS011;75981;42.636;23.376;2024-03-23T09:58:02;17.38;;;7.18;;
70233;SDS011;75981;42.636;23.376;2024-03-23T10:00:30;17.42;;;6.72;;
70233;SDS011;75981;42.636;23.376;2024-03-23T10:02:55;15.63;;;6.85;;
70233;SDS011;75981;42.636;23.376;2024-03-23T10:05:23;17.70;;;6.70;;
70233;SDS011;75981;42.636;23.376;2024-03-23T10:07:49;19.23;;;7.50;;
70233;SDS011;75981;42.636;23.376;2024-03-23T10:10:15;18.60;;;10.60;;
70233;SDS011;75981;42.636;23.376;2024-03-23T10:12:48;18.48;;;7.72;;
70233;SDS011;75981;42.636;23.376;2024-03-23T10:15:18;13.43;;;6.82;;
70233;SDS011;75981;42.636;23.376;2024-03-23T10:17:52;13.35;;;6.80;;
70233;SDS011;75981;42.636;23.376;2024-03-23T10:20:19;13.10;;;6.57;;
70233;SDS011;75981;42.636;23.376;2024-03-23T10:25:13;11.68;;;6.30;;
70233;SDS011;75981;42.636;23.376;2024-03-23T10:27:39;18.35;;;7.00;;
70233;SDS011;75981;42.636;23.376;2024-03-23T10:30:11;14.23;;;6.35;;
70233;SDS011;75981;42.636;23.376;2024-03-23T10:32:39;13.82;;;6.88;;
70233;SDS011;75981;42.636;23.376;2024-03-23T10:35:14;17.58;;;6.68;;
70233;SDS011;75981;42.636;23.376;2024-03-23T10:37:44;12.20;;;6.05;;
70233;SDS011;75981;42.636;23.376;2024-03-23T10:40:11;13.00;;;5.95;;
70233;SDS011;75981;42.636;23.376;2024-03-23T10:42:37;11.50;;;6.30;;
70233;SDS011;75981;42.636;23.376;2024-03-23T10:45:04;13.68;;;6.90;;
70233;SDS011;75981;42.636;23.376;2024-03-23T10:47:31;13.23;;;6.55;;
70233;SDS011;75981;42.636;23.376;2024-03-23T10:49:58;14.98;;;6.18;;
70233;SDS011;75981;42.636;23.376;2024-03-23T10:52:23;13.85;;;6.70;;
70233;SDS011;75981;42.636;23.376;2024-03-23T10:54:50;14.40;;;6.50;;
70233;SDS011;75981;42.636;23.376;2024-03-23T10:57:21;13.57;;;7.00;;
70233;SDS011;75981;42.636;23.376;2024-03-23T10:59:52;16.10;;;6.50;;
70233;SDS011;75981;42.636;23.376;2024-03-23T11:02:20;14.57;;;6.60;;
70233;SDS011;75981;42.636;23.376;2024-03-23T11:09:52;12.82;;;6.97;;
70233;SDS011;75981;42.636;23.376;2024-03-23T11:14:48;13.85;;;6.38;;
70233;SDS011;75981;42.636;23.376;2024-03-23T11:17:18;13.90;;;6.10;;
70233;SDS011;75981;42.636;23.376;2024-03-23T11:19:46;12.15;;;6.30;;
70233;SDS011;75981;42.636;23.376;2024-03-23T11:22:37;14.43;;;6.10;;
70233;SDS011;75981;42.636;23.376;2024-03-23T11:25:11;13.02;;;6.13;;
70233;SDS011;75981;42.636;23.376;2024-03-23T11:27:54;14.68;;;6.55;;
70233;SDS011;75981;42.636;23.376;2024-03-23T11:32:48;11.55;;;6.10;;
70233;SDS011;75981;42.636;23.376;2024-03-23T11:35:27;18.15;;;6.32;;
70233;SDS011;75981;42.636;23.376;2024-03-23T11:38:01;14.90;;;6.65;;
70233;SDS011;75981;42.636;23.376;2024-03-23T11:40:43;12.20;;;6.45;;
70233;SDS011;75981;42.636;23.376;2024-03-23T11:45:46;14.52;;;7.82;;
70233;SDS011;75981;42.636;23.376;2024-03-23T11:48:20;14.25;;;6.85;;
70233;SDS011;75981;42.636;23.376;2024-03-23T11:50:47;12.73;;;6.88;;
70233;SDS011;75981;42.636;23.376;2024-03-23T11:58:15;15.18;;;7.32;;
70233;SDS011;75981;42.636;23.376;2024-03-23T12:00:49;15.68;;;6.57;;
70233;SDS011;75981;42.636;23.376;2024-03-23T12:03:24;12.85;;;6.47;;
70233;SDS011;75981;42.636;23.376;2024-03-23T12:06:00;14.32;;;6.53;;
70233;SDS011;75981;42.636;23.376;2024-03-23T12:08:30;17.30;;;7.13;;
70233;SDS011;75981;42.636;23.376;2024-03-23T12:11:07;16.20;;;6.47;;
70233;SDS011;75981;42.636;23.376;2024-03-23T12:18:41;15.40;;;7.13;;
70233;SDS011;75981;42.636;23.376;2024-03-23T12:21:07;11.02;;;6.20;;
70233;SDS011;75981;42.636;23.376;2024-03-23T12:23:34;13.15;;;5.80;;
70233;SDS011;75981;42.636;23.376;2024-03-23T12:25:59;13.05;;;6.50;;
70233;SDS011;75981;42.636;23.376;2024-03-23T12:28:25;12.85;;;6.50;;
70233;SDS011;75981;42.636;23.376;2024-03-23T12:30:51;16.13;;;6.32;;
70233;SDS011;75981;42.636;23.376;2024-03-23T12:33:17;14.00;;;6.20;;
70233;SDS011;75981;42.636;23.376;2024-03-23T12:35:43;13.63;;;6.03;;
70233;SDS011;75981;42.636;23.376;2024-03-23T12:38:09;15.40;;;6.07;;
70233;SDS011;75981;42.636;23.376;2024-03-23T12:40:34;12.90;;;5.70;;
70233;SDS011;75981;42.636;23.376;2024-03-23T12:43:00;14.07;;;5.80;;
70233;SDS011;75981;42.636;23.376;2024-03-23T12:45:25;13.45;;;6.03;;
70233;SDS011;75981;42.636;23.376;2024-03-23T12:47:50;15.73;;;6.13;;
70233;SDS011;75981;42.636;23.376;2024-03-23T12:50:19;13.65;;;5.40;;
70233;SDS011;75981;42.636;23.376;2024-03-23T12:52:45;14.50;;;5.38;;
70233;SDS011;75981;42.636;23.376;2024-03-23T12:55:10;10.85;;;5.00;;
70233;SDS011;75981;42.636;23.376;2024-03-23T12:57:36;10.82;;;5.05;;
70233;SDS011;75981;42.636;23.376;2024-03-23T13:00:01;10.85;;;5.10;;
70233;SDS011;75981;42.636;23.376;2024-03-23T13:02:28;9.40;;;4.25;;
70233;SDS011;75981;42.636;23.376;2024-03-23T13:04:53;9.02;;;4.30;;
70233;SDS011;75981;42.636;23.376;2024-03-23T13:07:20;8.95;;;4.60;;
70233;SDS011;75981;42.636;23.376;2024-03-23T13:09:46;10.18;;;4.40;;
70233;SDS011;75981;42.636;23.376;2024-03-23T13:12:12;10.00;;;4.10;;
70233;SDS011;75981;42.636;23.376;2024-03-23T13:14:40;12.25;;;4.80;;
70233;SDS011;75981;42.636;23.376;2024-03-23T13:17:06;9.63;;;4.32;;
70233;SDS011;75981;42.636;23.376;2024-03-23T13:19:32;11.30;;;4.45;;
70233;SDS011;75981;42.636;23.376;2024-03-23T13:21:58;11.80;;;4.32;;
70233;SDS011;75981;42.636;23.376;2024-03-23T13:24:25;7.85;;;3.70;;
70233;SDS011;75981;42.636;23.376;2024-03-23T13:26:51;12.75;;;3.88;;
70233;SDS011;75981;42.636;23.376;2024-03-23T13:29:17;8.02;;;3.10;;
70233;SDS011;75981;42.636;23.376;2024-03-23T13:31:44;7.75;;;3.03;;
70233;SDS011;75981;42.636;23.376;2024-03-23T13:34:09;8.77;;;2.80;;
70233;SDS011;75981;42.636;23.376;2024-03-23T13:36:34;10.20;;;2.95;;
70233;SDS011;75981;42.636;23.376;2024-03-23T13:39:01;10.50;;;3.00;;
70233;SDS011;75981;42.636;23.376;2024-03-23T13:41:31;6.80;;;3.00;;
70233;SDS011;75981;42.636;23.376;2024-03-23T13:43:57;7.22;;;2.70;;
70233;SDS011;75981;42.636;23.376;2024-03-23T13:46:22;8.05;;;3.00;;
70233;SDS011;75981;42.636;23.376;2024-03-23T13:48:47;7.75;;;2.80;;
70233;SDS011;75981;42.636;23.376;2024-03-23T13:51:13;7.53;;;2.78;;
70233;SDS011;75981;42.636;23.376;2024-03-23T13:53:38;8.30;;;2.70;;
70233;SDS011;75981;42.636;23.376;2024-03-23T13:56:04;7.15;;;2.40;;
70233;SDS011;75981;42.636;23.376;2024-03-23T13:58:29;10.30;;;4.95;;
70233;SDS011;75981;42.636;23.376;2024-03-23T14:00:56;5.25;;;2.38;;
70233;SDS011;75981;42.636;23.376;2024-03-23T14:03:23;6.47;;;2.30;;
70233;SDS011;75981;42.636;23.376;2024-03-23T14:05:48;7.80;;;2.17;;
70233;SDS011;75981;42.636;23.376;2024-03-23T14:08:14;6.45;;;2.08;;
70233;SDS011;75981;42.636;23.376;2024-03-23T14:10:40;5.28;;;2.30;;
70233;SDS011;75981;42.636;23.376;2024-03-23T14:13:06;6.20;;;2.20;;
70233;SDS011;75981;42.636;23.376;2024-03-23T14:15:32;4.47;;;2.15;;
70233;SDS011;75981;42.636;23.376;2024-03-23T14:17:58;4.35;;;2.00;;
70233;SDS011;75981;42.636;23.376;2024-03-23T14:20:25;4.10;;;1.70;;
70233;SDS011;75981;42.636;23.376;2024-03-23T14:22:51;3.40;;;1.65;;
70233;SDS011;75981;42.636;23.376;2024-03-23T14:25:17;2.15;;;1.40;;
70233;SDS011;75981;42.636;23.376;2024-03-23T14:27:46;3.63;;;1.50;;
70233;SDS011;75981;42.636;23.376;2024-03-23T14:30:12;3.92;;;1.70;;
70233;SDS011;75981;42.636;23.376;2024-03-23T14:32:38;5.25;;;1.80;;
70233;SDS011;75981;42.636;23.376;2024-03-23T14:35:04;3.90;;;1.88;;
70233;SDS011;75981;42.636;23.376;2024-03-23T14:37:29;3.05;;;1.58;;
70233;SDS011;75981;42.636;23.376;2024-03-23T14:39:56;6.50;;;1.88;;
70233;SDS011;75981;42.636;23.376;2024-03-23T14:42:22;10.35;;;2.47;;
70233;SDS011;75981;42.636;23.376;2024-03-23T14:44:51;3.83;;;1.90;;
70233;SDS011;75981;42.636;23.376;2024-03-23T14:47:17;4.10;;;1.77;;
70233;SDS011;75981;42.636;23.376;2024-03-23T14:49:44;5.03;;;2.00;;
70233;SDS011;75981;42.636;23.376;2024-03-23T14:52:13;6.38;;;2.20;;
70233;SDS011;75981;42.636;23.376;2024-03-23T14:54:39;4.15;;;1.92;;
70233;SDS011;75981;42.636;23.376;2024-03-23T14:57:04;4.80;;;1.88;;
70233;SDS011;75981;42.636;23.376;2024-03-23T14:59:32;6.20;;;1.92;;
70233;SDS011;75981;42.636;23.376;2024-03-23T15:01:58;5.47;;;2.00;;
70233;SDS011;75981;42.636;23.376;2024-03-23T15:04:23;3.83;;;1.85;;
70233;SDS011;75981;42.636;23.376;2024-03-23T15:06:49;4.45;;;1.73;;
70233;SDS011;75981;42.636;23.376;2024-03-23T15:09:15;4.55;;;1.85;;
70233;SDS011;75981;42.636;23.376;2024-03-23T15:11:40;4.57;;;2.20;;
70233;SDS011;75981;42.636;23.376;2024-03-23T15:14:06;4.50;;;1.90;;
70233;SDS011;75981;42.636;23.376;2024-03-23T15:16:32;4.35;;;2.00;;
70233;SDS011;75981;42.636;23.376;2024-03-23T15:18:58;4.72;;;1.83;;
70233;SDS011;75981;42.636;23.376;2024-03-23T15:21:23;5.78;;;1.90;;
70233;SDS011;75981;42.636;23.376;2024-03-23T15:23:49;3.92;;;1.70;;
70233;SDS011;75981;42.636;23.376;2024-03-23T15:26:14;5.72;;;2.10;;
70233;SDS011;75981;42.636;23.376;2024-03-23T15:28:41;4.40;;;1.88;;
70233;SDS011;75981;42.636;23.376;2024-03-23T15:31:08;5.05;;;2.03;;
70233;SDS011;75981;42.636;23.376;2024-03-23T15:33:37;5.35;;;2.00;;
70233;SDS011;75981;42.636;23.376;2024-03-23T15:36:04;7.22;;;2.05;;
70233;SDS011;75981;42.636;23.376;2024-03-23T15:38:33;4.00;;;2.03;;
70233;SDS011;75981;42.636;23.376;2024-03-23T15:40:58;5.83;;;2.00;;
70233;SDS011;75981;42.636;23.376;2024-03-23T15:43:24;6.10;;;2.20;;